createdAt,value
2022-10-08T00:01:16.122Z,8.75
2022-10-08T00:03:45.987Z,12.75
2022-10-08T00:06:16.416Z,10.15
2022-10-08T00:08:47.756Z,11.48
2022-10-08T00:11:18.756Z,8.13
2022-10-08T00:13:48.198Z,10.55
2022-10-08T00:16:37.012Z,8.63
2022-10-08T00:19:21.950Z,8.70
2022-10-08T00:21:53.327Z,8.75
2022-10-08T00:24:21.432Z,8.73
2022-10-08T00:26:48.528Z,7.95
2022-10-08T00:29:17.965Z,5.82
2022-10-08T00:31:46.780Z,10.63
2022-10-08T00:34:22.380Z,7.93
2022-10-08T00:36:54.546Z,8.40
2022-10-08T00:39:23.953Z,8.55
2022-10-08T00:41:54.140Z,9.25
2022-10-08T00:44:54.441Z,9.00
2022-10-08T00:47:33.320Z,6.18
2022-10-08T00:50:11.311Z,7.15
2022-10-08T00:52:48.314Z,6.43
2022-10-08T00:55:20.195Z,10.32
2022-10-08T00:57:47.632Z,6.78
2022-10-08T01:00:19.275Z,9.38
2022-10-08T01:02:46.826Z,8.02
2022-10-08T01:05:19.761Z,8.30
2022-10-08T01:07:57.266Z,12.02
2022-10-08T01:10:53.326Z,6.95
2022-10-08T01:13:32.526Z,8.10
2022-10-08T01:16:24.662Z,6.35
2022-10-08T01:19:22.887Z,10.50
2022-10-08T01:22:13.037Z,10.38
2022-10-08T01:25:14.897Z,6.78
2022-10-08T01:27:45.886Z,10.35
2022-10-08T01:30:16.697Z,8.32
2022-10-08T01:33:00.365Z,8.00
2022-10-08T01:35:32.252Z,8.65
2022-10-08T01:38:09.135Z,9.45
2022-10-08T01:40:37.495Z,8.38
2022-10-08T01:43:08.352Z,7.18
2022-10-08T01:45:40.971Z,10.75
2022-10-08T01:48:15.433Z,7.78
2022-10-08T01:50:58.555Z,11.02
2022-10-08T01:53:32.931Z,9.20
2022-10-08T01:56:04.499Z,10.73
2022-10-08T01:58:54.527Z,10.05
2022-10-08T02:01:37.047Z,10.40
2022-10-08T02:04:23.557Z,14.20
2022-10-08T02:06:57.186Z,9.05
2022-10-08T02:09:27.211Z,9.32
2022-10-08T02:11:57.712Z,8.50
2022-10-08T02:14:26.687Z,7.00
2022-10-08T02:17:22.616Z,7.65
2022-10-08T02:20:02.795Z,8.50
2022-10-08T02:22:47.871Z,11.13
2022-10-08T02:25:28.466Z,11.50
2022-10-08T02:28:19.062Z,9.43
2022-10-08T02:31:11.952Z,7.72
2022-10-08T02:33:44.666Z,10.13
2022-10-08T02:36:16.762Z,11.43
2022-10-08T02:38:50.616Z,10.40
2022-10-08T02:41:20.367Z,7.85
2022-10-08T02:43:49.797Z,8.07
2022-10-08T02:46:20.623Z,10.18
2022-10-08T02:48:57.376Z,7.38
2022-10-08T02:51:26.136Z,9.25
2022-10-08T02:53:53.236Z,8.43
2022-10-08T02:56:51.916Z,8.48
2022-10-08T02:59:21.300Z,10.63
2022-10-08T03:01:55.929Z,8.68
2022-10-08T03:04:30.366Z,8.73
2022-10-08T03:06:58.610Z,10.85
2022-10-08T03:09:36.080Z,10.63
2022-10-08T03:12:03.686Z,9.85
2022-10-08T03:14:34.301Z,8.85
2022-10-08T03:17:01.487Z,11.93
2022-10-08T03:19:28.901Z,9.43
2022-10-08T03:21:56.718Z,10.35
2022-10-08T03:24:23.783Z,8.00
2022-10-08T03:26:53.435Z,8.02
2022-10-08T03:29:21.076Z,8.88
2022-10-08T03:31:48.916Z,8.25
2022-10-08T03:34:16.055Z,10.80
2022-10-08T03:36:43.094Z,8.75
2022-10-08T03:39:11.626Z,7.53
2022-10-08T03:41:39.166Z,9.43
2022-10-08T03:44:10.878Z,11.88
2022-10-08T03:46:38.475Z,9.98
2022-10-08T03:49:05.597Z,9.07
2022-10-08T03:51:32.695Z,8.70
2022-10-08T03:53:59.687Z,11.32
2022-10-08T03:56:26.946Z,9.15
2022-10-08T03:59:04.127Z,9.05
2022-10-08T04:01:31.181Z,8.70
2022-10-08T04:03:58.272Z,7.28
2022-10-08T04:06:25.521Z,10.27
2022-10-08T04:08:53.664Z,8.82
2022-10-08T04:11:20.882Z,9.30
2022-10-08T04:13:47.866Z,10.77
2022-10-08T04:16:18.626Z,10.38
2022-10-08T04:18:46.796Z,8.75
2022-10-08T04:21:16.779Z,8.07
2022-10-08T04:23:44.406Z,6.82
2022-10-08T04:26:13.734Z,8.88
2022-10-08T04:28:42.361Z,9.20
2022-10-08T04:31:13.110Z,9.10
2022-10-08T04:33:40.557Z,8.35
2022-10-08T04:36:13.715Z,7.68
2022-10-08T04:38:42.945Z,9.10
2022-10-08T04:41:20.842Z,9.20
2022-10-08T04:43:48.080Z,10.48
2022-10-08T04:46:19.363Z,9.93
2022-10-08T04:48:52.280Z,8.93
2022-10-08T04:51:20.213Z,11.27
2022-10-08T04:53:47.296Z,13.52
2022-10-08T04:56:25.795Z,10.63
2022-10-08T04:58:55.232Z,10.50
2022-10-08T05:01:23.671Z,10.82
2022-10-08T05:03:52.808Z,11.60
2022-10-08T05:06:22.696Z,11.93
2022-10-08T05:08:50.594Z,9.15
2022-10-08T05:11:18.706Z,13.07
2022-10-08T05:13:50.886Z,11.52
2022-10-08T05:16:18.710Z,9.95
2022-10-08T05:18:46.596Z,9.88
2022-10-08T05:21:17.048Z,12.45
2022-10-08T05:23:44.737Z,11.93
2022-10-08T05:26:16.941Z,9.25
2022-10-08T05:28:47.234Z,9.50
2022-10-08T05:31:17.868Z,9.88
2022-10-08T05:33:45.377Z,9.73
2022-10-08T05:36:23.847Z,9.90
2022-10-08T05:38:51.256Z,12.18
2022-10-08T05:41:21.916Z,10.77
2022-10-08T05:43:52.111Z,12.00
2022-10-08T05:46:19.383Z,9.45
2022-10-08T05:48:46.566Z,10.73
2022-10-08T05:51:16.211Z,10.20
2022-10-08T05:53:47.251Z,10.48
2022-10-08T05:56:16.412Z,8.90
2022-10-08T05:58:44.347Z,9.13
2022-10-08T06:01:22.107Z,10.88
2022-10-08T06:03:55.305Z,10.88
2022-10-08T06:06:23.386Z,12.02
2022-10-08T06:08:54.506Z,9.07
2022-10-08T06:11:21.557Z,12.32
2022-10-08T06:13:51.717Z,10.60
2022-10-08T06:16:18.808Z,10.32
2022-10-08T06:18:45.997Z,12.75
2022-10-08T06:21:15.491Z,14.45
2022-10-08T06:23:50.251Z,9.07
2022-10-08T06:26:18.387Z,10.30
2022-10-08T06:28:46.269Z,10.77
2022-10-08T06:31:13.388Z,9.30
2022-10-08T06:33:40.906Z,10.95
2022-10-08T06:36:21.106Z,9.35
2022-10-08T06:38:52.366Z,8.38
2022-10-08T06:41:20.286Z,5.85
2022-10-08T06:43:58.907Z,9.95
2022-10-08T06:46:26.190Z,8.48
2022-10-08T06:48:53.816Z,9.98
2022-10-08T06:51:21.027Z,7.00
2022-10-08T06:53:54.117Z,8.48
2022-10-08T06:56:21.979Z,7.70
2022-10-08T06:58:49.497Z,6.88
2022-10-08T07:01:29.031Z,10.35
2022-10-08T07:04:00.905Z,8.15
2022-10-08T07:06:29.686Z,9.32
2022-10-08T07:08:59.424Z,10.57
2022-10-08T07:11:27.574Z,12.15
2022-10-08T07:13:55.568Z,10.18
2022-10-08T07:16:25.195Z,7.60
2022-10-08T07:18:54.360Z,8.63
2022-10-08T07:21:25.271Z,7.65
2022-10-08T07:23:53.046Z,11.35
2022-10-08T07:26:25.907Z,13.40
2022-10-08T07:28:58.903Z,8.65
2022-10-08T07:31:32.313Z,9.55
2022-10-08T07:34:00.977Z,10.13
2022-10-08T07:36:28.958Z,10.57
2022-10-08T07:39:01.026Z,9.18
2022-10-08T07:41:32.131Z,9.45
2022-10-08T07:44:03.186Z,11.10
2022-10-08T07:46:33.205Z,11.32
2022-10-08T07:49:01.732Z,9.65
2022-10-08T07:51:32.976Z,12.38
2022-10-08T07:54:02.818Z,8.90
2022-10-08T07:56:31.006Z,13.40
2022-10-08T07:58:59.975Z,9.98
2022-10-08T08:01:30.176Z,11.27
2022-10-08T08:04:06.369Z,11.27
2022-10-08T08:06:37.846Z,11.77
2022-10-08T08:09:05.007Z,12.13
2022-10-08T08:11:34.646Z,9.48
2022-10-08T08:14:01.785Z,10.48
2022-10-08T08:16:29.707Z,15.50
2022-10-08T08:18:59.318Z,12.98
2022-10-08T08:21:29.112Z,12.85
2022-10-08T08:23:58.068Z,11.80
2022-10-08T08:26:28.965Z,14.90
2022-10-08T08:28:58.763Z,11.20
2022-10-08T08:31:27.438Z,10.90
2022-10-08T08:33:57.427Z,12.52
2022-10-08T08:36:27.057Z,9.43
2022-10-08T08:38:54.337Z,10.18
2022-10-08T08:41:51.206Z,10.73
2022-10-08T08:44:24.771Z,12.52
2022-10-08T08:47:20.977Z,13.10
2022-10-08T08:50:08.150Z,12.50
2022-10-08T08:55:18.661Z,10.00
2022-10-08T08:58:34.587Z,13.27
2022-10-08T09:01:18.495Z,13.85
2022-10-08T09:03:52.442Z,16.75
2022-10-08T09:06:23.365Z,13.18
2022-10-08T09:09:17.926Z,14.57
2022-10-08T09:11:44.996Z,15.65
2022-10-08T09:14:12.461Z,19.33
2022-10-08T09:16:43.190Z,18.05
2022-10-08T09:19:10.366Z,18.27
2022-10-08T09:21:37.396Z,16.85
2022-10-08T09:24:04.606Z,13.82
2022-10-08T09:26:35.805Z,14.82
2022-10-08T09:29:04.891Z,17.90
2022-10-08T09:31:48.134Z,14.07
2022-10-08T09:34:18.955Z,14.02
2022-10-08T09:36:54.636Z,13.25
2022-10-08T09:39:27.057Z,14.35
2022-10-08T09:42:17.751Z,18.25
2022-10-08T09:44:51.215Z,16.83
2022-10-08T09:47:20.946Z,14.63
2022-10-08T09:50:03.876Z,16.48
2022-10-08T09:52:31.477Z,14.05
2022-10-08T09:55:03.753Z,17.58
2022-10-08T09:57:33.256Z,16.20
2022-10-08T10:00:02.999Z,15.07
2022-10-08T10:02:38.366Z,14.18
2022-10-08T10:07:46.672Z,14.70
2022-10-08T10:10:36.466Z,13.73
2022-10-08T10:13:13.286Z,17.90
2022-10-08T10:15:59.030Z,16.42
2022-10-08T10:19:05.007Z,15.40
2022-10-08T10:22:04.526Z,18.23
2022-10-08T10:24:53.181Z,14.95
2022-10-08T10:27:40.107Z,17.50
2022-10-08T10:30:26.261Z,11.88
2022-10-08T10:32:56.357Z,16.25
2022-10-08T10:35:32.219Z,15.30
2022-10-08T10:38:22.596Z,22.15
2022-10-08T10:41:02.827Z,15.20
2022-10-08T10:43:39.242Z,16.40
2022-10-08T10:46:14.465Z,16.75
2022-10-08T10:48:41.581Z,16.92
2022-10-08T10:51:29.506Z,20.10
2022-10-08T10:54:21.659Z,18.27
2022-10-08T10:57:01.282Z,19.60
2022-10-08T10:59:31.376Z,18.70
2022-10-08T11:02:27.876Z,18.42
2022-10-08T11:05:18.767Z,20.00
2022-10-08T11:08:17.776Z,19.60
2022-10-08T11:11:17.252Z,17.50
2022-10-08T11:13:57.957Z,18.60
2022-10-08T11:16:38.406Z,24.02
2022-10-08T11:19:12.226Z,20.80
2022-10-08T11:22:05.342Z,22.80
2022-10-08T11:24:48.807Z,21.83
2022-10-08T11:27:21.461Z,20.70
2022-10-08T11:30:18.021Z,18.30
2022-10-08T11:32:51.676Z,22.40
2022-10-08T11:35:33.397Z,22.40
2022-10-08T11:38:15.126Z,19.92
2022-10-08T11:40:53.088Z,18.02
2022-10-08T11:43:23.091Z,20.65
2022-10-08T11:46:30.188Z,23.05
2022-10-08T11:49:22.668Z,23.27
2022-10-08T11:51:53.679Z,19.90
2022-10-08T11:54:34.843Z,16.65
2022-10-08T11:57:20.416Z,21.45
2022-10-08T11:59:53.341Z,22.45
2022-10-08T12:02:38.033Z,19.27
2022-10-08T12:05:23.007Z,22.13
2022-10-08T12:07:54.547Z,24.37
2022-10-08T12:10:41.726Z,24.13
2022-10-08T12:13:18.034Z,23.17
2022-10-08T12:15:45.307Z,21.70
2022-10-08T12:18:25.813Z,21.67
2022-10-08T12:21:17.826Z,21.40
2022-10-08T12:23:45.382Z,18.73
2022-10-08T12:26:14.876Z,21.98
2022-10-08T12:28:41.931Z,19.83
2022-10-08T12:31:29.258Z,23.00
2022-10-08T12:34:02.626Z,19.60
2022-10-08T12:36:41.672Z,19.55
2022-10-08T12:39:33.631Z,13.25
2022-10-08T12:42:15.152Z,12.55
2022-10-08T12:45:06.937Z,20.27
2022-10-08T12:47:50.462Z,24.67
2022-10-08T12:50:35.010Z,21.27
2022-10-08T12:53:03.917Z,19.45
2022-10-08T12:55:38.231Z,21.83
2022-10-08T12:58:05.758Z,20.55
2022-10-08T13:00:34.935Z,20.88
2022-10-08T13:03:15.166Z,19.30
2022-10-08T13:05:47.809Z,19.60
2022-10-08T13:08:35.376Z,15.95
2022-10-08T13:11:05.679Z,23.10
2022-10-08T13:13:38.817Z,18.33
2022-10-08T13:16:20.837Z,18.60
2022-10-08T13:18:53.872Z,22.13
2022-10-08T13:21:36.161Z,15.82
2022-10-08T13:24:12.416Z,16.95
2022-10-08T13:26:53.666Z,21.02
2022-10-08T13:29:29.922Z,20.88
2022-10-08T13:32:01.601Z,23.38
2022-10-08T13:34:41.142Z,19.38
2022-10-08T13:37:24.808Z,20.42
2022-10-08T13:40:00.979Z,21.42
2022-10-08T13:42:30.845Z,26.02
2022-10-08T13:45:00.126Z,18.92
2022-10-08T13:47:28.806Z,20.63
2022-10-08T13:50:01.738Z,19.02
2022-10-08T13:52:32.596Z,15.60
2022-10-08T13:55:08.378Z,18.42
2022-10-08T13:57:35.522Z,21.13
2022-10-08T14:00:02.634Z,17.65
2022-10-08T14:02:29.656Z,15.77
2022-10-08T14:04:57.766Z,21.63
2022-10-08T14:07:31.344Z,20.52
2022-10-08T14:10:02.792Z,20.52
2022-10-08T14:12:33.511Z,23.92
2022-10-08T14:15:01.288Z,10.93
2022-10-08T14:17:28.387Z,18.92
2022-10-08T14:19:55.696Z,23.02
2022-10-08T14:22:22.823Z,17.98
2022-10-08T14:24:49.875Z,17.70
2022-10-08T14:27:16.947Z,31.92
2022-10-08T14:29:43.966Z,21.63
2022-10-08T14:32:12.288Z,19.85
2022-10-08T14:34:39.487Z,19.13
2022-10-08T14:37:06.941Z,16.02
2022-10-08T14:39:38.187Z,18.25
2022-10-08T14:42:05.481Z,17.35
2022-10-08T14:44:32.546Z,16.02
2022-10-08T14:46:59.637Z,12.77
2022-10-08T14:49:26.662Z,19.90
2022-10-08T14:51:53.746Z,27.70
2022-10-08T14:54:20.731Z,19.80
2022-10-08T14:56:47.748Z,19.25
2022-10-08T14:59:14.947Z,17.67
2022-10-08T15:01:42.016Z,20.50
2022-10-08T15:04:12.730Z,17.17
2022-10-08T15:06:39.806Z,16.60
2022-10-08T15:09:07.781Z,17.05
2022-10-08T15:11:40.848Z,8.40
2022-10-08T15:14:10.686Z,6.93
2022-10-08T15:16:39.745Z,8.07
2022-10-08T15:19:10.406Z,8.55
2022-10-08T15:21:37.506Z,25.90
2022-10-08T15:24:04.791Z,31.45
2022-10-08T15:26:31.867Z,26.70
2022-10-08T15:28:58.972Z,22.70
2022-10-08T15:31:26.298Z,21.90
2022-10-08T15:33:56.411Z,32.63
2022-10-08T15:36:27.395Z,23.20
2022-10-08T15:38:59.591Z,22.75
2022-10-08T15:41:28.536Z,21.70
2022-10-08T15:43:55.632Z,23.42
2022-10-08T15:46:26.278Z,18.13
2022-10-08T15:48:55.985Z,20.40
2022-10-08T15:51:24.201Z,19.00
2022-10-08T15:53:51.329Z,20.33
2022-10-08T15:56:18.442Z,16.90
2022-10-08T15:58:50.799Z,16.20
2022-10-08T16:01:20.741Z,12.95
2022-10-08T16:03:49.786Z,16.65
2022-10-08T16:06:20.036Z,14.95
2022-10-08T16:08:47.619Z,14.50
2022-10-08T16:11:35.103Z,18.10
2022-10-08T16:14:13.456Z,14.65
2022-10-08T16:16:41.187Z,16.88
2022-10-08T16:19:12.126Z,18.75
2022-10-08T16:21:40.243Z,17.63
2022-10-08T16:24:07.841Z,17.50
2022-10-08T16:26:35.665Z,14.88
2022-10-08T16:29:06.417Z,19.33
2022-10-08T16:31:35.306Z,19.10
2022-10-08T16:34:05.601Z,19.40
2022-10-08T16:36:35.002Z,16.83
2022-10-08T16:39:02.255Z,15.57
2022-10-08T16:41:31.716Z,20.00
2022-10-08T16:44:03.306Z,14.43
2022-10-08T16:46:33.777Z,17.77
2022-10-08T16:49:25.334Z,16.90
2022-10-08T16:52:01.573Z,17.75
2022-10-08T16:54:29.155Z,18.95
2022-10-08T16:56:56.814Z,18.00
2022-10-08T16:59:26.374Z,19.10
2022-10-08T17:01:55.802Z,17.63
2022-10-08T17:04:24.623Z,18.52
2022-10-08T17:06:52.063Z,15.80
2022-10-08T17:09:19.145Z,19.10
2022-10-08T17:11:46.631Z,19.75
2022-10-08T17:14:14.077Z,21.05
2022-10-08T17:16:45.171Z,22.95
2022-10-08T17:19:12.697Z,18.83
2022-10-08T17:21:39.809Z,15.35
2022-10-08T17:24:07.568Z,26.00
2022-10-08T17:26:34.759Z,26.70
2022-10-08T17:29:07.310Z,22.52
2022-10-08T17:31:35.228Z,32.38
2022-10-08T17:34:04.154Z,21.88
2022-10-08T17:36:37.414Z,22.88
2022-10-08T17:39:06.686Z,20.48
2022-10-08T17:41:38.035Z,19.52
2022-10-08T17:44:07.807Z,28.20
2022-10-08T17:46:40.624Z,23.50
2022-10-08T17:49:07.739Z,23.27
2022-10-08T17:51:34.986Z,23.17
2022-10-08T17:54:07.623Z,20.67
2022-10-08T17:56:35.370Z,22.45
2022-10-08T17:59:02.657Z,18.73
2022-10-08T18:01:32.518Z,24.65
2022-10-08T18:04:02.476Z,32.72
2022-10-08T18:06:31.573Z,24.63
2022-10-08T18:09:04.386Z,27.70
2022-10-08T18:11:33.325Z,28.20
2022-10-08T18:14:01.896Z,25.58
2022-10-08T18:16:29.101Z,24.27
2022-10-08T18:18:56.154Z,21.80
2022-10-08T18:21:23.526Z,20.80
2022-10-08T18:23:50.814Z,22.17
2022-10-08T18:26:20.701Z,23.65
2022-10-08T18:28:53.166Z,22.38
2022-10-08T18:31:21.990Z,19.50
2022-10-08T18:33:51.311Z,18.33
2022-10-08T18:36:24.396Z,20.10
2022-10-08T18:38:58.216Z,20.13
2022-10-08T18:41:31.056Z,20.60
2022-10-08T18:44:01.216Z,20.13
2022-10-08T18:46:28.885Z,21.75
2022-10-08T18:48:56.416Z,22.02
2022-10-08T18:51:25.980Z,21.17
2022-10-08T18:53:56.545Z,17.52
2022-10-08T18:56:29.237Z,20.52
2022-10-08T18:58:58.237Z,18.20
2022-10-08T19:01:28.485Z,15.80
2022-10-08T19:03:57.945Z,16.00
2022-10-08T19:06:30.146Z,19.30
2022-10-08T19:08:58.708Z,17.67
2022-10-08T19:11:33.719Z,17.73
2022-10-08T19:14:02.636Z,17.73
2022-10-08T19:16:30.718Z,19.55
2022-10-08T19:19:02.529Z,20.75
2022-10-08T19:21:34.557Z,17.02
2022-10-08T19:24:02.526Z,18.45
2022-10-08T19:26:33.470Z,19.63
2022-10-08T19:29:00.766Z,16.42
2022-10-08T19:31:30.919Z,17.42
2022-10-08T19:34:03.096Z,17.92
2022-10-08T19:36:33.848Z,16.55
2022-10-08T19:39:04.016Z,17.25
2022-10-08T19:41:31.481Z,15.98
2022-10-08T19:43:59.461Z,17.58
2022-10-08T19:46:27.606Z,17.45
2022-10-08T19:48:58.646Z,15.27
2022-10-08T19:51:29.114Z,16.52
2022-10-08T19:53:57.521Z,16.73
2022-10-08T19:56:25.382Z,17.63
2022-10-08T19:58:56.326Z,19.45
2022-10-08T20:01:32.727Z,16.85
2022-10-08T20:04:02.068Z,17.27
2022-10-08T20:06:32.253Z,17.08
2022-10-08T20:09:02.317Z,18.92
2022-10-08T20:11:31.321Z,18.08
2022-10-08T20:13:59.267Z,17.10
2022-10-08T20:16:30.472Z,18.25
2022-10-08T20:19:03.550Z,15.77
2022-10-08T20:21:33.597Z,20.80
2022-10-08T20:24:02.766Z,16.50
2022-10-08T20:26:31.666Z,18.48
2022-10-08T20:29:11.017Z,18.27
2022-10-08T20:31:44.532Z,18.55
2022-10-08T20:34:14.488Z,17.13
2022-10-08T20:36:41.886Z,21.33
2022-10-08T20:39:10.527Z,17.30
2022-10-08T20:41:37.627Z,19.27
2022-10-08T20:44:05.497Z,19.92
2022-10-08T20:46:34.112Z,16.17
2022-10-08T20:49:01.537Z,18.55
2022-10-08T20:51:30.069Z,16.70
2022-10-08T20:53:58.358Z,19.38
2022-10-08T20:56:26.547Z,17.30
2022-10-08T20:58:54.046Z,16.50
2022-10-08T21:01:28.952Z,16.40
2022-10-08T21:03:56.777Z,16.88
2022-10-08T21:06:26.997Z,18.52
2022-10-08T21:08:55.862Z,16.33
2022-10-08T21:11:26.376Z,16.25
2022-10-08T21:13:53.618Z,15.10
2022-10-08T21:16:26.358Z,16.40
2022-10-08T21:18:57.308Z,16.70
2022-10-08T21:21:25.336Z,18.10
2022-10-08T21:23:52.757Z,18.67
2022-10-08T21:26:22.677Z,14.48
2022-10-08T21:28:51.897Z,16.10
2022-10-08T21:31:20.834Z,14.82
2022-10-08T21:33:50.157Z,16.40
2022-10-08T21:36:22.319Z,18.42
2022-10-08T21:38:50.397Z,15.65
2022-10-08T21:41:18.699Z,17.67
2022-10-08T21:43:48.466Z,16.38
2022-10-08T21:46:22.186Z,16.75
2022-10-08T21:48:57.546Z,16.38
2022-10-08T21:51:25.676Z,17.80
2022-10-08T21:53:55.341Z,17.80
2022-10-08T21:56:24.776Z,16.63
2022-10-08T21:58:54.837Z,15.88
2022-10-08T22:01:29.238Z,17.23
2022-10-08T22:04:00.199Z,18.27
2022-10-08T22:06:29.508Z,17.23
2022-10-08T22:08:57.616Z,15.77
2022-10-08T22:11:24.976Z,17.17
2022-10-08T22:13:52.098Z,19.23
2022-10-08T22:16:21.321Z,19.75
2022-10-08T22:18:48.726Z,17.83
2022-10-08T22:21:18.936Z,18.27
2022-10-08T22:23:47.429Z,17.35
2022-10-08T22:26:20.317Z,17.85
2022-10-08T22:28:47.975Z,19.77
2022-10-08T22:31:17.343Z,21.83
2022-10-08T22:33:44.825Z,16.95
2022-10-08T22:36:15.566Z,18.48
2022-10-08T22:38:44.073Z,19.33
2022-10-08T22:41:16.802Z,18.13
2022-10-08T22:43:44.811Z,18.10
2022-10-08T22:46:20.306Z,20.40
2022-10-08T22:51:20.547Z,18.95
2022-10-08T22:53:48.370Z,20.85
2022-10-08T22:56:18.797Z,17.77
2022-10-08T22:58:46.316Z,17.88
2022-10-08T23:01:15.636Z,18.55
2022-10-08T23:03:43.011Z,17.63
2022-10-08T23:06:17.511Z,22.45
2022-10-08T23:08:46.051Z,18.38
2022-10-08T23:11:14.598Z,18.15
2022-10-08T23:13:45.714Z,17.92
2022-10-08T23:16:15.506Z,17.38
2022-10-08T23:18:44.671Z,19.13
2022-10-08T23:21:15.642Z,23.77
2022-10-08T23:23:46.335Z,16.27
2022-10-08T23:26:14.258Z,20.23
2022-10-08T23:28:41.984Z,18.85
2022-10-08T23:31:11.780Z,22.63
2022-10-08T23:33:42.127Z,20.00
2022-10-08T23:36:11.520Z,19.42
2022-10-08T23:38:39.016Z,17.83
2022-10-08T23:41:08.321Z,19.40
2022-10-08T23:43:37.274Z,16.13
2022-10-08T23:46:06.043Z,16.90
2022-10-08T23:48:34.198Z,16.75
2022-10-08T23:51:01.328Z,20.83
2022-10-08T23:53:28.741Z,17.48
2022-10-08T23:55:55.810Z,18.90
2022-10-08T23:58:23.296Z,20.08
